sensor_id;sensor_type;location;lat;lon;timestamp;temperature;humidity
20524;DHT22;10420;48.542;12.270;2022-10-17T00:03:25;12.10;99.90
20524;DHT22;10420;48.542;12.270;2022-10-17T00:08:26;12.00;99.90
20524;DHT22;10420;48.542;12.270;2022-10-17T00:13:26;12.00;99.90
20524;DHT22;10420;48.542;12.270;2022-10-17T00:18:27;11.90;99.90
20524;DHT22;10420;48.542;12.270;2022-10-17T00:23:28;11.80;99.90
20524;DHT22;10420;48.542;12.270;2022-10-17T00:28:30;11.80;99.90
20524;DHT22;10420;48.542;12.270;2022-10-17T00:33:32;11.80;99.90
20524;DHT22;10420;48.542;12.270;2022-10-17T00:38:34;11.80;99.90
20524;DHT22;10420;48.542;12.270;2022-10-17T00:44:05;11.70;99.90
20524;DHT22;10420;48.542;12.270;2022-10-17T00:49:09;11.70;99.90
20524;DHT22;10420;48.542;12.270;2022-10-17T00:54:13;11.70;99.90
20524;DHT22;10420;48.542;12.270;2022-10-17T00:59:15;11.80;99.90
20524;DHT22;10420;48.542;12.270;2022-10-17T01:04:17;11.70;99.90
20524;DHT22;10420;48.542;12.270;2022-10-17T01:09:18;11.60;99.90
20524;DHT22;10420;48.542;12.270;2022-10-17T01:35:47;11.40;99.90
20524;DHT22;10420;48.542;12.270;2022-10-17T01:41:18;11.50;99.90
20524;DHT22;10420;48.542;12.270;2022-10-17T01:46:25;11.60;99.90
20524;DHT22;10420;48.542;12.270;2022-10-17T01:51:36;11.70;99.90
20524;DHT22;10420;48.542;12.270;2022-10-17T01:56:39;12.00;99.90
20524;DHT22;10420;48.542;12.270;2022-10-17T02:01:41;12.10;99.90
20524;DHT22;10420;48.542;12.270;2022-10-17T02:06:43;12.10;99.90
20524;DHT22;10420;48.542;12.270;2022-10-17T02:11:55;12.40;99.90
20524;DHT22;10420;48.542;12.270;2022-10-17T02:17:04;12.20;99.90
20524;DHT22;10420;48.542;12.270;2022-10-17T02:22:39;12.20;99.90
20524;DHT22;10420;48.542;12.270;2022-10-17T02:27:51;12.20;99.90
20524;DHT22;10420;48.542;12.270;2022-10-17T02:33:00;12.20;99.90
20524;DHT22;10420;48.542;12.270;2022-10-17T02:38:03;12.20;99.90
20524;DHT22;10420;48.542;12.270;2022-10-17T02:43:06;12.20;99.90
20524;DHT22;10420;48.542;12.270;2022-10-17T02:48:35;12.10;99.90
20524;DHT22;10420;48.542;12.270;2022-10-17T02:53:58;12.00;99.90
20524;DHT22;10420;48.542;12.270;2022-10-17T02:59:03;11.90;99.90
20524;DHT22;10420;48.542;12.270;2022-10-17T03:04:08;11.80;99.90
20524;DHT22;10420;48.542;12.270;2022-10-17T03:09:09;11.90;99.90
20524;DHT22;10420;48.542;12.270;2022-10-17T03:14:09;11.70;99.90
20524;DHT22;10420;48.542;12.270;2022-10-17T03:19:10;11.70;99.90
20524;DHT22;10420;48.542;12.270;2022-10-17T03:24:11;11.80;99.90
20524;DHT22;10420;48.542;12.270;2022-10-17T03:29:12;11.80;99.90
20524;DHT22;10420;48.542;12.270;2022-10-17T03:34:13;11.80;99.90
20524;DHT22;10420;48.542;12.270;2022-10-17T03:39:16;11.90;99.90
20524;DHT22;10420;48.542;12.270;2022-10-17T03:44:16;11.80;99.90
20524;DHT22;10420;48.542;12.270;2022-10-17T03:49:17;11.80;99.90
20524;DHT22;10420;48.542;12.270;2022-10-17T03:54:18;11.60;99.90
20524;DHT22;10420;48.542;12.270;2022-10-17T03:59:18;11.60;99.90
20524;DHT22;10420;48.542;12.270;2022-10-17T04:04:19;11.50;99.90
20524;DHT22;10420;48.542;12.270;2022-10-17T04:09:20;11.40;99.90
20524;DHT22;10420;48.542;12.270;2022-10-17T04:14:21;11.70;99.90
20524;DHT22;10420;48.542;12.270;2022-10-17T04:19:21;11.70;99.90
20524;DHT22;10420;48.542;12.270;2022-10-17T04:24:22;11.60;99.90
20524;DHT22;10420;48.542;12.270;2022-10-17T04:29:23;11.80;99.90
20524;DHT22;10420;48.542;12.270;2022-10-17T04:34:24;11.80;99.90
20524;DHT22;10420;48.542;12.270;2022-10-17T04:39:24;11.30;99.90
20524;DHT22;10420;48.542;12.270;2022-10-17T04:44:25;11.30;99.90
20524;DHT22;10420;48.542;12.270;2022-10-17T04:49:26;11.20;99.90
20524;DHT22;10420;48.542;12.270;2022-10-17T04:54:26;11.20;99.90
20524;DHT22;10420;48.542;12.270;2022-10-17T04:59:27;11.20;99.90
20524;DHT22;10420;48.542;12.270;2022-10-17T05:04:28;11.20;99.90
20524;DHT22;10420;48.542;12.270;2022-10-17T05:09:29;11.40;99.90
20524;DHT22;10420;48.542;12.270;2022-10-17T05:14:30;11.30;99.90
20524;DHT22;10420;48.542;12.270;2022-10-17T05:19:30;11.40;99.90
20524;DHT22;10420;48.542;12.270;2022-10-17T05:24:31;11.60;99.90
20524;DHT22;10420;48.542;12.270;2022-10-17T05:29:32;11.70;99.90
20524;DHT22;10420;48.542;12.270;2022-10-17T05:34:33;11.50;99.90
20524;DHT22;10420;48.542;12.270;2022-10-17T05:39:34;11.60;99.90
20524;DHT22;10420;48.542;12.270;2022-10-17T05:44:34;11.80;99.90
20524;DHT22;10420;48.542;12.270;2022-10-17T05:49:35;12.00;99.90
20524;DHT22;10420;48.542;12.270;2022-10-17T05:54:36;12.10;99.90
20524;DHT22;10420;48.542;12.270;2022-10-17T05:59:36;11.90;99.90
20524;DHT22;10420;48.542;12.270;2022-10-17T06:04:37;11.80;99.90
20524;DHT22;10420;48.542;12.270;2022-10-17T06:09:38;11.90;99.90
20524;DHT22;10420;48.542;12.270;2022-10-17T06:14:39;12.10;99.90
20524;DHT22;10420;48.542;12.270;2022-10-17T06:19:40;12.10;99.90
20524;DHT22;10420;48.542;12.270;2022-10-17T06:24:40;12.10;99.90
20524;DHT22;10420;48.542;12.270;2022-10-17T06:29:41;12.00;99.90
20524;DHT22;10420;48.542;12.270;2022-10-17T06:34:42;12.00;99.90
20524;DHT22;10420;48.542;12.270;2022-10-17T06:39:43;11.90;99.90
20524;DHT22;10420;48.542;12.270;2022-10-17T06:44:43;12.00;99.90
20524;DHT22;10420;48.542;12.270;2022-10-17T06:49:44;11.90;99.90
20524;DHT22;10420;48.542;12.270;2022-10-17T06:54:45;12.00;99.90
20524;DHT22;10420;48.542;12.270;2022-10-17T06:59:45;12.30;99.90
20524;DHT22;10420;48.542;12.270;2022-10-17T07:04:46;12.50;99.90
20524;DHT22;10420;48.542;12.270;2022-10-17T07:09:47;12.80;99.90
20524;DHT22;10420;48.542;12.270;2022-10-17T07:14:48;12.70;99.90
20524;DHT22;10420;48.542;12.270;2022-10-17T07:19:49;12.70;99.90
20524;DHT22;10420;48.542;12.270;2022-10-17T07:24:50;12.70;99.90
20524;DHT22;10420;48.542;12.270;2022-10-17T07:29:51;13.10;99.90
20524;DHT22;10420;48.542;12.270;2022-10-17T07:34:51;13.00;99.90
20524;DHT22;10420;48.542;12.270;2022-10-17T07:39:52;13.00;99.90
20524;DHT22;10420;48.542;12.270;2022-10-17T07:44:53;13.20;99.90
20524;DHT22;10420;48.542;12.270;2022-10-17T07:49:54;13.50;99.90
20524;DHT22;10420;48.542;12.270;2022-10-17T07:54:54;13.60;99.90
20524;DHT22;10420;48.542;12.270;2022-10-17T07:59:55;13.80;99.90
20524;DHT22;10420;48.542;12.270;2022-10-17T08:04:56;14.00;99.90
20524;DHT22;10420;48.542;12.270;2022-10-17T08:09:56;14.10;99.90
20524;DHT22;10420;48.542;12.270;2022-10-17T08:14:57;14.20;99.90
20524;DHT22;10420;48.542;12.270;2022-10-17T08:19:58;14.30;99.90
20524;DHT22;10420;48.542;12.270;2022-10-17T08:24:58;14.60;99.90
20524;DHT22;10420;48.542;12.270;2022-10-17T08:29:59;14.90;99.90
20524;DHT22;10420;48.542;12.270;2022-10-17T08:35:00;15.20;99.90
20524;DHT22;10420;48.542;12.270;2022-10-17T08:40:02;15.20;99.90
20524;DHT22;10420;48.542;12.270;2022-10-17T08:45:20;15.60;99.90
20524;DHT22;10420;48.542;12.270;2022-10-17T08:55:39;16.00;99.90
20524;DHT22;10420;48.542;12.270;2022-10-17T09:00:45;16.30;99.90
20524;DHT22;10420;48.542;12.270;2022-10-17T09:05:55;16.90;99.90
20524;DHT22;10420;48.542;12.270;2022-10-17T09:16:29;25.00;99.90
20524;DHT22;10420;48.542;12.270;2022-10-17T09:26:50;26.90;99.90
20524;DHT22;10420;48.542;12.270;2022-10-17T09:32:35;27.90;99.90
20524;DHT22;10420;48.542;12.270;2022-10-17T09:37:30;28.30;99.90
20524;DHT22;10420;48.542;12.270;2022-10-17T09:42:34;29.00;99.90
20524;DHT22;10420;48.542;12.270;2022-10-17T09:48:03;29.40;99.90
20524;DHT22;10420;48.542;12.270;2022-10-17T09:53:12;29.60;99.90
20524;DHT22;10420;48.542;12.270;2022-10-17T09:58:14;30.40;99.90
20524;DHT22;10420;48.542;12.270;2022-10-17T10:03:22;27.90;99.90
20524;DHT22;10420;48.542;12.270;2022-10-17T10:08:27;29.50;99.90
20524;DHT22;10420;48.542;12.270;2022-10-17T10:13:28;30.20;99.90
20524;DHT22;10420;48.542;12.270;2022-10-17T10:18:35;29.60;99.90
20524;DHT22;10420;48.542;12.270;2022-10-17T10:23:38;29.30;99.90
20524;DHT22;10420;48.542;12.270;2022-10-17T10:28:39;28.80;99.90
20524;DHT22;10420;48.542;12.270;2022-10-17T10:33:42;29.50;99.90
20524;DHT22;10420;48.542;12.270;2022-10-17T10:38:52;29.70;99.90
20524;DHT22;10420;48.542;12.270;2022-10-17T10:43:54;25.70;99.90
20524;DHT22;10420;48.542;12.270;2022-10-17T10:49:00;24.00;99.90
20524;DHT22;10420;48.542;12.270;2022-10-17T10:54:02;23.70;99.90
20524;DHT22;10420;48.542;12.270;2022-10-17T11:09:39;23.30;99.90
20524;DHT22;10420;48.542;12.270;2022-10-17T11:25:39;23.10;99.90
20524;DHT22;10420;48.542;12.270;2022-10-17T11:35:49;22.60;99.90
20524;DHT22;10420;48.542;12.270;2022-10-17T11:40:55;22.50;99.90
20524;DHT22;10420;48.542;12.270;2022-10-17T11:46:04;22.40;99.90
20524;DHT22;10420;48.542;12.270;2022-10-17T11:51:13;21.70;99.90
20524;DHT22;10420;48.542;12.270;2022-10-17T11:56:18;21.70;99.90
20524;DHT22;10420;48.542;12.270;2022-10-17T12:02:13;21.70;99.90
20524;DHT22;10420;48.542;12.270;2022-10-17T12:07:06;21.70;99.90
20524;DHT22;10420;48.542;12.270;2022-10-17T12:12:10;21.60;99.90
20524;DHT22;10420;48.542;12.270;2022-10-17T12:22:33;21.50;99.90
20524;DHT22;10420;48.542;12.270;2022-10-17T12:32:37;21.60;99.90
20524;DHT22;10420;48.542;12.270;2022-10-17T12:42:52;21.30;99.90
20524;DHT22;10420;48.542;12.270;2022-10-17T12:47:53;21.30;99.90
20524;DHT22;10420;48.542;12.270;2022-10-17T12:53:00;21.10;99.90
20524;DHT22;10420;48.542;12.270;2022-10-17T12:58:04;20.70;99.90
20524;DHT22;10420;48.542;12.270;2022-10-17T13:03:12;20.80;99.90
20524;DHT22;10420;48.542;12.270;2022-10-17T13:08:26;21.00;99.90
20524;DHT22;10420;48.542;12.270;2022-10-17T13:13:46;20.80;99.90
20524;DHT22;10420;48.542;12.270;2022-10-17T13:18:51;20.90;99.90
20524;DHT22;10420;48.542;12.270;2022-10-17T13:23:52;20.70;99.90
20524;DHT22;10420;48.542;12.270;2022-10-17T13:29:03;20.70;99.90
20524;DHT22;10420;48.542;12.270;2022-10-17T13:34:13;20.50;99.90
20524;DHT22;10420;48.542;12.270;2022-10-17T13:39:18;20.50;99.90
20524;DHT22;10420;48.542;12.270;2022-10-17T13:44:21;20.50;99.90
20524;DHT22;10420;48.542;12.270;2022-10-17T13:59:39;20.00;99.90
20524;DHT22;10420;48.542;12.270;2022-10-17T14:04:40;19.50;99.90
20524;DHT22;10420;48.542;12.270;2022-10-17T14:09:45;19.70;99.90
20524;DHT22;10420;48.542;12.270;2022-10-17T14:14:48;19.70;99.90
20524;DHT22;10420;48.542;12.270;2022-10-17T14:19:52;19.80;99.90
20524;DHT22;10420;48.542;12.270;2022-10-17T14:24:54;19.70;99.90
20524;DHT22;10420;48.542;12.270;2022-10-17T14:29:59;19.60;99.90
20524;DHT22;10420;48.542;12.270;2022-10-17T14:35:03;19.60;99.90
20524;DHT22;10420;48.542;12.270;2022-10-17T14:40:05;19.30;99.90
20524;DHT22;10420;48.542;12.270;2022-10-17T14:45:11;19.10;99.90
20524;DHT22;10420;48.542;12.270;2022-10-17T14:55:24;18.70;99.90
20524;DHT22;10420;48.542;12.270;2022-10-17T15:00:25;18.50;99.90
20524;DHT22;10420;48.542;12.270;2022-10-17T15:05:26;18.40;99.90
20524;DHT22;10420;48.542;12.270;2022-10-17T15:10:31;18.20;99.90
20524;DHT22;10420;48.542;12.270;2022-10-17T15:15:33;18.20;99.90
20524;DHT22;10420;48.542;12.270;2022-10-17T15:20:34;18.20;99.90
20524;DHT22;10420;48.542;12.270;2022-10-17T15:25:34;18.00;99.90
20524;DHT22;10420;48.542;12.270;2022-10-17T15:30:35;17.80;99.90
20524;DHT22;10420;48.542;12.270;2022-10-17T15:35:36;17.80;99.90
20524;DHT22;10420;48.542;12.270;2022-10-17T15:40:40;17.70;99.90
20524;DHT22;10420;48.542;12.270;2022-10-17T15:45:41;17.50;99.90
20524;DHT22;10420;48.542;12.270;2022-10-17T15:50:41;17.40;99.90
20524;DHT22;10420;48.542;12.270;2022-10-17T15:55:42;17.10;99.90
20524;DHT22;10420;48.542;12.270;2022-10-17T16:00:43;16.90;99.90
20524;DHT22;10420;48.542;12.270;2022-10-17T16:05:44;16.80;99.90
20524;DHT22;10420;48.542;12.270;2022-10-17T16:10:45;16.60;99.90
20524;DHT22;10420;48.542;12.270;2022-10-17T16:15:46;16.30;99.90
20524;DHT22;10420;48.542;12.270;2022-10-17T16:20:46;16.10;99.90
20524;DHT22;10420;48.542;12.270;2022-10-17T16:25:47;16.00;99.90
20524;DHT22;10420;48.542;12.270;2022-10-17T16:30:48;15.70;99.90
20524;DHT22;10420;48.542;12.270;2022-10-17T16:35:48;15.80;99.90
20524;DHT22;10420;48.542;12.270;2022-10-17T16:40:49;15.50;99.90
20524;DHT22;10420;48.542;12.270;2022-10-17T16:45:50;15.30;99.90
20524;DHT22;10420;48.542;12.270;2022-10-17T16:50:51;15.30;99.90
20524;DHT22;10420;48.542;12.270;2022-10-17T16:56:01;15.10;99.90
20524;DHT22;10420;48.542;12.270;2022-10-17T17:01:07;14.90;99.90
20524;DHT22;10420;48.542;12.270;2022-10-17T17:06:12;14.80;99.90
20524;DHT22;10420;48.542;12.270;2022-10-17T17:11:16;14.70;99.90
20524;DHT22;10420;48.542;12.270;2022-10-17T17:16:19;14.70;99.90
20524;DHT22;10420;48.542;12.270;2022-10-17T17:21:23;14.50;99.90
20524;DHT22;10420;48.542;12.270;2022-10-17T17:26:25;14.50;99.90
20524;DHT22;10420;48.542;12.270;2022-10-17T17:31:28;14.30;99.90
20524;DHT22;10420;48.542;12.270;2022-10-17T17:36:32;14.20;99.90
20524;DHT22;10420;48.542;12.270;2022-10-17T17:41:33;14.10;99.90
20524;DHT22;10420;48.542;12.270;2022-10-17T17:46:34;14.00;99.90
20524;DHT22;10420;48.542;12.270;2022-10-17T17:51:36;13.90;99.90
20524;DHT22;10420;48.542;12.270;2022-10-17T17:56:37;13.80;99.90
20524;DHT22;10420;48.542;12.270;2022-10-17T18:01:38;13.80;99.90
20524;DHT22;10420;48.542;12.270;2022-10-17T18:06:39;13.60;99.90
20524;DHT22;10420;48.542;12.270;2022-10-17T18:11:40;13.60;99.90
20524;DHT22;10420;48.542;12.270;2022-10-17T18:16:41;13.60;99.90
20524;DHT22;10420;48.542;12.270;2022-10-17T18:21:42;13.50;99.90
20524;DHT22;10420;48.542;12.270;2022-10-17T18:26:43;13.30;99.90
20524;DHT22;10420;48.542;12.270;2022-10-17T18:31:44;13.40;99.90
20524;DHT22;10420;48.542;12.270;2022-10-17T18:36:45;13.20;99.90
20524;DHT22;10420;48.542;12.270;2022-10-17T18:41:45;13.30;99.90
20524;DHT22;10420;48.542;12.270;2022-10-17T18:46:46;13.20;99.90
20524;DHT22;10420;48.542;12.270;2022-10-17T18:51:47;13.00;99.90
20524;DHT22;10420;48.542;12.270;2022-10-17T18:56:49;13.00;99.90
20524;DHT22;10420;48.542;12.270;2022-10-17T19:01:50;13.00;99.90
20524;DHT22;10420;48.542;12.270;2022-10-17T19:06:51;13.00;99.90
20524;DHT22;10420;48.542;12.270;2022-10-17T19:11:52;12.90;99.90
20524;DHT22;10420;48.542;12.270;2022-10-17T19:16:52;12.90;99.90
20524;DHT22;10420;48.542;12.270;2022-10-17T19:21:53;12.90;99.90
20524;DHT22;10420;48.542;12.270;2022-10-17T19:26:56;12.80;99.90
20524;DHT22;10420;48.542;12.270;2022-10-17T19:31:58;12.60;99.90
20524;DHT22;10420;48.542;12.270;2022-10-17T19:36:59;12.70;99.90
20524;DHT22;10420;48.542;12.270;2022-10-17T19:42:00;12.70;99.90
20524;DHT22;10420;48.542;12.270;2022-10-17T19:47:00;12.60;99.90
20524;DHT22;10420;48.542;12.270;2022-10-17T19:52:01;12.50;99.90
20524;DHT22;10420;48.542;12.270;2022-10-17T19:57:02;12.50;99.90
20524;DHT22;10420;48.542;12.270;2022-10-17T20:02:02;12.50;99.90
20524;DHT22;10420;48.542;12.270;2022-10-17T20:07:03;12.40;99.90
20524;DHT22;10420;48.542;12.270;2022-10-17T20:12:04;12.30;99.90
20524;DHT22;10420;48.542;12.270;2022-10-17T20:17:05;12.40;99.90
20524;DHT22;10420;48.542;12.270;2022-10-17T20:22:05;12.20;99.90
20524;DHT22;10420;48.542;12.270;2022-10-17T20:27:06;12.20;99.90
20524;DHT22;10420;48.542;12.270;2022-10-17T20:32:06;12.20;99.90
20524;DHT22;10420;48.542;12.270;2022-10-17T20:37:07;12.20;99.90
20524;DHT22;10420;48.542;12.270;2022-10-17T20:42:08;12.10;99.90
20524;DHT22;10420;48.542;12.270;2022-10-17T20:47:08;12.10;99.90
20524;DHT22;10420;48.542;12.270;2022-10-17T20:52:09;12.00;99.90
20524;DHT22;10420;48.542;12.270;2022-10-17T20:57:10;12.10;99.90
20524;DHT22;10420;48.542;12.270;2022-10-17T21:02:12;12.00;99.90
20524;DHT22;10420;48.542;12.270;2022-10-17T21:07:13;12.00;99.90
20524;DHT22;10420;48.542;12.270;2022-10-17T21:12:14;12.00;99.90
20524;DHT22;10420;48.542;12.270;2022-10-17T21:17:15;12.10;99.90
20524;DHT22;10420;48.542;12.270;2022-10-17T21:22:15;12.10;99.90
20524;DHT22;10420;48.542;12.270;2022-10-17T21:27:18;12.00;99.90
20524;DHT22;10420;48.542;12.270;2022-10-17T21:32:18;12.00;99.90
20524;DHT22;10420;48.542;12.270;2022-10-17T21:37:19;11.90;99.90
20524;DHT22;10420;48.542;12.270;2022-10-17T21:42:20;11.80;99.90
20524;DHT22;10420;48.542;12.270;2022-10-17T21:47:20;11.70;99.90
20524;DHT22;10420;48.542;12.270;2022-10-17T21:52:21;11.70;99.90
20524;DHT22;10420;48.542;12.270;2022-10-17T21:57:22;11.70;99.90
20524;DHT22;10420;48.542;12.270;2022-10-17T22:02:22;11.80;99.90
20524;DHT22;10420;48.542;12.270;2022-10-17T22:07:23;11.70;99.90
20524;DHT22;10420;48.542;12.270;2022-10-17T22:12:24;11.50;99.90
20524;DHT22;10420;48.542;12.270;2022-10-17T22:17:24;11.60;99.90
20524;DHT22;10420;48.542;12.270;2022-10-17T22:22:25;11.40;99.90
20524;DHT22;10420;48.542;12.270;2022-10-17T22:27:26;11.40;99.90
20524;DHT22;10420;48.542;12.270;2022-10-17T22:32:26;11.30;99.90
20524;DHT22;10420;48.542;12.270;2022-10-17T22:37:27;11.50;99.90
20524;DHT22;10420;48.542;12.270;2022-10-17T22:42:27;11.30;99.90
20524;DHT22;10420;48.542;12.270;2022-10-17T22:47:30;11.40;99.90
20524;DHT22;10420;48.542;12.270;2022-10-17T22:52:31;11.30;99.90
20524;DHT22;10420;48.542;12.270;2022-10-17T22:57:31;11.30;99.90
20524;DHT22;10420;48.542;12.270;2022-10-17T23:02:32;11.20;99.90
20524;DHT22;10420;48.542;12.270;2022-10-17T23:07:33;11.20;99.90
20524;DHT22;10420;48.542;12.270;2022-10-17T23:12:33;11.20;99.90
20524;DHT22;10420;48.542;12.270;2022-10-17T23:17:35;11.10;99.90
20524;DHT22;10420;48.542;12.270;2022-10-17T23:22:36;11.10;99.90
20524;DHT22;10420;48.542;12.270;2022-10-17T23:27:36;11.00;99.90
20524;DHT22;10420;48.542;12.270;2022-10-17T23:32:38;11.10;99.90
20524;DHT22;10420;48.542;12.270;2022-10-17T23:37:39;11.00;99.90
20524;DHT22;10420;48.542;12.270;2022-10-17T23:42:39;11.10;99.90
20524;DHT22;10420;48.542;12.270;2022-10-17T23:47:40;11.20;99.90
20524;DHT22;10420;48.542;12.270;2022-10-17T23:52:41;10.90;99.90
20524;DHT22;10420;48.542;12.270;2022-10-17T23:57:41;11.00;99.90
